Time;durP1;ratioP1;P1;durP2;ratioP2;P2;SDS_P1;SDS_P2;PMS_P1;PMS_P2;Temp;Humidity;BMP_temperature;BMP_pressure;BME280_temperature;BME280_humidity;BME280_pressure;Samples;Min_cycle;Max_cycle;Signal;HPM_P1;HPM_P2
2023/06/26 00:00:32;;;;;;;13.63;12.30;;;22.30;99.90;;;;;;5037070;27;93355;-40
2023/06/26 00:02:58;;;;;;;12.35;11.27;;;22.30;99.90;;;;;;5055021;27;95955;-40
2023/06/26 00:05:23;;;;;;;11.65;10.70;;;22.20;99.90;;;;;;5055730;27;94220;-33
2023/06/26 00:07:49;;;;;;;12.77;11.73;;;22.20;99.90;;;;;;5055391;27;94797;-34
2023/06/26 00:10:15;;;;;;;14.68;13.38;;;22.20;99.90;;;;;;5056169;27;94265;-45
2023/06/26 00:12:41;;;;;;;12.73;11.68;;;22.20;99.90;;;;;;5058522;27;94012;-43
2023/06/26 00:15:07;;;;;;;12.70;11.70;;;22.20;99.90;;;;;;5059533;27;93193;-38
2023/06/26 00:17:36;;;;;;;10.88;9.98;;;22.10;99.90;;;;;;5059544;27;93848;-43
2023/06/26 00:20:03;;;;;;;13.15;11.93;;;22.10;99.90;;;;;;5060017;27;94588;-35
2023/06/26 00:22:29;;;;;;;12.73;11.73;;;22.10;99.90;;;;;;5058849;27;92244;-39
2023/06/26 00:24:54;;;;;;;13.43;11.98;;;22.10;99.90;;;;;;5060605;27;92921;-36
2023/06/26 00:27:20;;;;;;;14.98;13.68;;;22.10;99.90;;;;;;5057822;27;97159;-37
2023/06/26 00:29:46;;;;;;;14.05;12.82;;;22.00;99.90;;;;;;5058681;27;95321;-40
2023/06/26 00:32:11;;;;;;;12.55;11.45;;;22.00;99.90;;;;;;5059279;27;92529;-34
2023/06/26 00:34:37;;;;;;;14.57;13.13;;;22.00;99.90;;;;;;5058776;27;94317;-34
2023/06/26 00:37:03;;;;;;;12.18;11.02;;;22.00;99.90;;;;;;5040566;27;96386;-36
2023/06/26 00:39:29;;;;;;;14.55;13.25;;;22.00;99.90;;;;;;5058766;27;95721;-40
2023/06/26 00:41:55;;;;;;;14.77;13.40;;;22.00;99.90;;;;;;5058883;27;92575;-35
2023/06/26 00:44:21;;;;;;;21.15;14.48;;;22.00;99.90;;;;;;5058899;27;93740;-34
2023/06/26 00:46:47;;;;;;;15.32;13.98;;;21.90;99.90;;;;;;5058383;27;95363;-34
2023/06/26 00:49:13;;;;;;;15.20;13.70;;;21.90;99.90;;;;;;5059366;27;94899;-35
2023/06/26 00:51:39;;;;;;;14.48;13.00;;;21.80;99.90;;;;;;5057843;27;95628;-42
2023/06/26 00:54:05;;;;;;;13.82;12.63;;;21.80;99.90;;;;;;5058332;27;93478;-41
2023/06/26 00:56:31;;;;;;;13.00;11.93;;;21.80;99.90;;;;;;5042152;27;96081;-38
2023/06/26 00:58:57;;;;;;;14.60;13.20;;;21.90;99.90;;;;;;5038762;27;94906;-36
2023/06/26 01:01:25;;;;;;;13.82;12.52;;;21.80;99.90;;;;;;5042893;27;92087;-33
2023/06/26 01:03:51;;;;;;;;;;;21.80;99.90;;;;;;5059707;27;94082;-38
2023/06/26 01:06:19;;;;;;;13.57;12.50;;;21.70;99.90;;;;;;5059090;27;94492;-44
2023/06/26 01:08:45;;;;;;;14.32;13.02;;;21.70;99.90;;;;;;5058469;27;94894;-35
2023/06/26 01:11:12;;;;;;;14.93;13.63;;;21.80;99.90;;;;;;5058780;27;94629;-34
2023/06/26 01:13:39;;;;;;;14.63;13.32;;;21.70;99.90;;;;;;5058572;27;94160;-42
2023/06/26 01:16:05;;;;;;;14.33;12.87;;;21.70;99.90;;;;;;5057419;27;95488;-35
2023/06/26 01:18:32;;;;;;;14.27;13.02;;;21.70;99.90;;;;;;5059016;27;96439;-37
2023/06/26 01:21:00;;;;;;;14.27;13.03;;;21.70;99.90;;;;;;5040070;27;93226;-36
2023/06/26 01:23:37;;;;;;;13.88;12.70;;;21.60;99.90;;;;;;5057828;27;93388;-35
2023/06/26 01:26:06;;;;;;;14.10;12.90;;;21.70;99.90;;;;;;5058531;27;94665;-34
2023/06/26 01:28:33;;;;;;;12.02;11.00;;;21.60;99.90;;;;;;5057865;27;94622;-35
2023/06/26 01:31:00;;;;;;;13.93;12.68;;;21.50;99.90;;;;;;5039713;27;92223;-37
2023/06/26 01:33:26;;;;;;;14.55;13.02;;;21.50;99.90;;;;;;5058293;27;93616;-43
2023/06/26 01:35:52;;;;;;;13.45;12.25;;;21.50;99.90;;;;;;5043598;27;95320;-35
2023/06/26 01:38:25;;;;;;;13.23;11.98;;;21.50;99.90;;;;;;5030855;27;94917;-40
2023/06/26 01:40:52;;;;;;;13.27;12.18;;;21.40;99.90;;;;;;5037235;27;95658;-35
2023/06/26 01:43:40;;;;;;;14.13;12.93;;;21.40;99.90;;;;;;5037290;27;92210;-44
2023/06/26 01:46:14;;;;;;;13.77;12.68;;;21.40;99.90;;;;;;5037534;27;95886;-42
2023/06/26 01:49:03;;;;;;;13.77;12.65;;;21.40;99.90;;;;;;5031649;27;94449;-38
2023/06/26 01:51:38;;;;;;;14.13;12.82;;;21.30;99.90;;;;;;5032668;27;94302;-34
2023/06/26 01:54:10;;;;;;;13.52;12.20;;;21.40;99.90;;;;;;5047244;27;94300;-45
2023/06/26 01:56:39;;;;;;;14.30;13.02;;;21.40;99.90;;;;;;5052606;27;95081;-34
2023/06/26 01:59:07;;;;;;;13.15;11.98;;;21.30;99.90;;;;;;5037410;27;94759;-39
2023/06/26 02:01:33;;;;;;;;;;;21.30;99.90;;;;;;5038017;27;94890;-40
2023/06/26 02:03:59;;;;;;;15.38;11.57;;;21.30;99.90;;;;;;5040124;27;94522;-33
2023/06/26 02:06:25;;;;;;;13.23;11.85;;;21.30;99.90;;;;;;5035320;27;95293;-35
2023/06/26 02:08:51;;;;;;;14.35;13.02;;;21.30;99.90;;;;;;5037511;27;95417;-42
2023/06/26 02:11:16;;;;;;;15.07;13.57;;;21.30;99.90;;;;;;5036868;27;93828;-39
2023/06/26 02:13:42;;;;;;;14.15;12.85;;;21.20;99.90;;;;;;5037469;27;93221;-39
2023/06/26 02:16:07;;;;;;;13.23;12.13;;;21.20;99.90;;;;;;5036673;27;96214;-32
2023/06/26 02:18:33;;;;;;;12.60;11.45;;;21.20;99.90;;;;;;5036612;27;94678;-38
2023/06/26 02:20:59;;;;;;;14.00;12.68;;;21.20;99.90;;;;;;5037232;27;93414;-43
2023/06/26 02:23:25;;;;;;;13.55;12.32;;;21.10;99.90;;;;;;5036908;27;93423;-34
2023/06/26 02:25:50;;;;;;;14.38;11.85;;;21.10;99.90;;;;;;5037505;27;94711;-33
2023/06/26 02:28:16;;;;;;;12.63;11.52;;;21.10;99.90;;;;;;5036729;27;94646;-33
2023/06/26 02:30:42;;;;;;;13.35;12.05;;;21.10;99.90;;;;;;5035995;27;93241;-42
2023/06/26 02:33:08;;;;;;;12.13;11.13;;;21.10;99.90;;;;;;5036870;27;94257;-33
2023/06/26 02:35:33;;;;;;;14.60;13.20;;;21.10;99.90;;;;;;5043562;27;94341;-41
2023/06/26 02:37:59;;;;;;;14.25;12.70;;;21.10;99.90;;;;;;5058205;27;95210;-39
2023/06/26 02:40:25;;;;;;;14.65;12.43;;;21.10;99.90;;;;;;5056716;27;94627;-41
2023/06/26 02:42:50;;;;;;;15.20;13.73;;;21.10;99.90;;;;;;5056873;27;93344;-37
2023/06/26 02:45:16;;;;;;;13.45;12.25;;;21.00;99.90;;;;;;5056780;27;96817;-34
2023/06/26 02:47:42;;;;;;;15.05;13.68;;;21.00;99.90;;;;;;5057083;27;94720;-37
2023/06/26 02:50:08;;;;;;;17.30;13.02;;;21.00;99.90;;;;;;5057105;27;93563;-42
2023/06/26 02:52:33;;;;;;;13.80;12.40;;;21.10;99.90;;;;;;5056786;27;94242;-39
2023/06/26 02:54:59;;;;;;;15.30;14.00;;;21.10;99.90;;;;;;5051820;27;95819;-33
2023/06/26 02:57:24;;;;;;;15.55;14.15;;;21.10;99.90;;;;;;5036922;27;95459;-35
2023/06/26 02:59:51;;;;;;;14.55;13.15;;;21.10;99.90;;;;;;5037540;27;93018;-34
2023/06/26 03:02:16;;;;;;;14.65;13.20;;;21.10;99.90;;;;;;5048137;27;94671;-33
2023/06/26 03:04:42;;;;;;;15.90;14.40;;;21.10;99.90;;;;;;5037605;27;93777;-34
2023/06/26 03:07:08;;;;;;;16.40;15.02;;;21.10;99.90;;;;;;5056524;27;94644;-35
2023/06/26 03:09:34;;;;;;;14.95;13.60;;;21.10;99.90;;;;;;5056618;27;92643;-34
2023/06/26 03:12:00;;;;;;;15.60;14.23;;;21.20;99.90;;;;;;5057659;27;93486;-35
2023/06/26 03:14:26;;;;;;;16.45;14.80;;;21.10;99.90;;;;;;5042899;27;93538;-40
2023/06/26 03:16:52;;;;;;;15.63;14.23;;;21.20;99.90;;;;;;5056427;27;93854;-39
2023/06/26 03:19:18;;;;;;;16.48;14.93;;;21.20;99.90;;;;;;5055645;27;94876;-46
2023/06/26 03:21:44;;;;;;;15.02;13.52;;;21.10;99.90;;;;;;5057432;27;94446;-36
2023/06/26 03:24:10;;;;;;;17.48;15.77;;;21.10;99.90;;;;;;5055709;27;94256;-37
2023/06/26 03:26:35;;;;;;;17.05;14.57;;;21.10;99.90;;;;;;5057156;27;94350;-41
2023/06/26 03:29:01;;;;;;;16.00;14.50;;;21.10;99.90;;;;;;5055880;27;94454;-41
2023/06/26 03:31:26;;;;;;;18.90;16.52;;;21.10;99.90;;;;;;5055976;27;94113;-35
2023/06/26 03:33:52;;;;;;;16.58;15.07;;;21.10;99.90;;;;;;5055815;27;96977;-38
2023/06/26 03:36:18;;;;;;;19.15;17.27;;;21.10;99.90;;;;;;5055753;27;94528;-36
2023/06/26 03:38:43;;;;;;;18.13;16.42;;;21.10;99.90;;;;;;5056241;27;93436;-33
2023/06/26 03:41:09;;;;;;;20.33;17.17;;;21.00;99.90;;;;;;5055804;27;93538;-38
2023/06/26 03:43:35;;;;;;;18.27;16.63;;;21.00;99.90;;;;;;5055783;27;95563;-36
2023/06/26 03:46:00;;;;;;;19.45;17.58;;;21.10;99.90;;;;;;5055881;27;96318;-37
2023/06/26 03:48:26;;;;;;;20.15;17.88;;;21.00;99.90;;;;;;5056611;27;92050;-33
2023/06/26 03:50:52;;;;;;;18.70;17.10;;;21.10;99.90;;;;;;5056384;27;92203;-34
2023/06/26 03:53:17;;;;;;;17.58;15.98;;;21.00;99.90;;;;;;5055412;27;94598;-39
2023/06/26 03:55:43;;;;;;;16.98;15.40;;;21.10;99.90;;;;;;5045997;27;94030;-33
2023/06/26 03:58:09;;;;;;;18.10;16.38;;;21.10;99.90;;;;;;5052971;27;92316;-33
2023/06/26 04:00:34;;;;;;;17.02;15.43;;;21.10;99.90;;;;;;5046664;27;92899;-35
2023/06/26 04:03:00;;;;;;;19.05;17.38;;;21.10;99.90;;;;;;5035307;27;94896;-34
2023/06/26 04:05:25;;;;;;;18.95;17.20;;;21.10;99.90;;;;;;5046147;27;95048;-34
2023/06/26 04:07:52;;;;;;;17.70;16.02;;;21.10;99.90;;;;;;5055844;27;96089;-33
2023/06/26 04:10:18;;;;;;;18.48;16.77;;;21.20;99.90;;;;;;5055604;27;93133;-34
2023/06/26 04:12:43;;;;;;;18.88;17.10;;;21.20;99.90;;;;;;5056138;27;94603;-35
2023/06/26 04:15:09;;;;;;;18.63;16.90;;;21.20;99.90;;;;;;5055329;27;94564;-36
2023/06/26 04:17:35;;;;;;;17.48;15.82;;;21.30;99.90;;;;;;5056046;27;92628;-35
2023/06/26 04:20:00;;;;;;;16.55;15.00;;;21.30;99.90;;;;;;5055957;27;94639;-34
2023/06/26 04:22:26;;;;;;;16.98;15.38;;;21.30;99.90;;;;;;5024131;27;94579;-43
2023/06/26 04:24:52;;;;;;;19.23;16.33;;;21.30;99.90;;;;;;5056069;27;94579;-33
2023/06/26 04:27:18;;;;;;;17.13;15.45;;;21.30;99.90;;;;;;5055143;27;94109;-33
2023/06/26 04:29:44;;;;;;;19.27;15.60;;;21.40;99.90;;;;;;5020534;27;93668;-37
2023/06/26 04:32:09;;;;;;;17.20;15.43;;;21.40;99.90;;;;;;5054790;27;96814;-35
2023/06/26 04:37:30;;;;;;;16.27;14.63;;;21.60;99.90;;;;;;4929029;28;92258;-34
2023/06/26 04:39:56;;;;;;;16.58;14.10;;;21.70;99.90;;;;;;4944091;28;94270;-34
2023/06/26 04:42:22;;;;;;;16.10;14.50;;;21.80;99.90;;;;;;4955014;28;94544;-43
2023/06/26 04:44:47;;;;;;;18.10;16.33;;;21.80;99.90;;;;;;4953367;28;94536;-37
2023/06/26 04:47:16;;;;;;;16.75;15.02;;;21.80;99.90;;;;;;4935128;28;94783;-41
2023/06/26 04:49:45;;;;;;;16.60;14.82;;;21.90;99.90;;;;;;4935778;28;93649;-39
2023/06/26 04:52:13;;;;;;;16.55;14.95;;;22.00;99.90;;;;;;4935407;28;94870;-41
2023/06/26 04:54:39;;;;;;;16.55;14.88;;;21.90;99.90;;;;;;4935326;28;94792;-39
2023/06/26 04:57:05;;;;;;;14.68;13.20;;;21.90;99.90;;;;;;4935823;28;94142;-34
2023/06/26 04:59:31;;;;;;;17.88;15.88;;;21.90;99.90;;;;;;4938504;28;93030;-39
2023/06/26 05:01:57;;;;;;;16.67;15.07;;;21.90;99.90;;;;;;4939275;28;95277;-32
2023/06/26 05:04:22;;;;;;;14.13;12.75;;;21.90;99.90;;;;;;4919334;28;93322;-35
2023/06/26 05:06:48;;;;;;;15.93;14.43;;;22.00;99.90;;;;;;4939163;28;93235;-35
2023/06/26 05:09:14;;;;;;;20.55;15.07;;;22.00;99.90;;;;;;4938489;28;94235;-43
2023/06/26 05:11:40;;;;;;;17.15;14.18;;;21.80;99.90;;;;;;4938886;28;94467;-46
2023/06/26 05:14:09;;;;;;;15.98;13.40;;;21.80;99.90;;;;;;4920789;28;94484;-39
2023/06/26 05:16:35;;;;;;;15.60;11.57;;;21.90;99.90;;;;;;4933798;28;93286;-37
2023/06/26 05:19:01;;;;;;;13.27;12.02;;;21.90;99.90;;;;;;4938702;28;93198;-42
2023/06/26 05:21:27;;;;;;;12.23;11.02;;;22.10;99.90;;;;;;4938219;28;95415;-35
2023/06/26 05:23:57;;;;;;;10.25;9.15;;;22.30;99.90;;;;;;4937800;28;95635;-42
2023/06/26 05:26:22;;;;;;;18.05;11.25;;;22.50;99.90;;;;;;4938880;28;92150;-36
2023/06/26 05:28:48;;;;;;;13.20;9.43;;;22.30;99.90;;;;;;4938011;28;93997;-44
2023/06/26 05:31:17;;;;;;;15.82;9.23;;;22.10;99.90;;;;;;4938967;28;93645;-36
2023/06/26 05:33:45;;;;;;;19.40;9.35;;;22.00;99.90;;;;;;4938601;28;94444;-38
2023/06/26 05:36:13;;;;;;;12.98;9.38;;;22.00;99.90;;;;;;4949249;28;92886;-37
2023/06/26 05:38:38;;;;;;;24.45;9.15;;;22.00;99.90;;;;;;4957896;28;93260;-35
2023/06/26 05:41:05;;;;;;;15.90;10.10;;;21.90;99.90;;;;;;4958446;28;94057;-36
2023/06/26 05:43:31;;;;;;;14.50;9.40;;;21.80;99.90;;;;;;4954790;28;95419;-33
2023/06/26 05:45:58;;;;;;;12.80;9.68;;;21.70;99.90;;;;;;4935248;28;95547;-46
2023/06/26 05:48:23;;;;;;;11.13;8.57;;;21.80;99.90;;;;;;4951894;28;94436;-33
2023/06/26 05:50:49;;;;;;;11.65;9.70;;;22.10;99.90;;;;;;4950336;28;94750;-34
2023/06/26 05:53:15;;;;;;;11.30;8.77;;;22.10;99.90;;;;;;4955748;28;94367;-44
2023/06/26 05:55:42;;;;;;;17.30;8.95;;;22.50;99.90;;;;;;4949238;28;93278;-36
2023/06/26 05:58:10;;;;;;;10.77;8.63;;;22.70;99.90;;;;;;4944603;28;92485;-35
2023/06/26 06:00:36;;;;;;;13.40;9.48;;;23.00;99.90;;;;;;4955407;28;94825;-41
2023/06/26 06:03:02;;;;;;;16.35;9.57;;;22.80;99.90;;;;;;4956768;28;95604;-34
2023/06/26 06:05:28;;;;;;;11.68;9.05;;;22.60;99.90;;;;;;4947496;28;94191;-34
2023/06/26 06:07:54;;;;;;;13.68;8.80;;;22.60;99.90;;;;;;4953894;28;93807;-35
2023/06/26 06:10:19;;;;;;;15.60;9.70;;;22.30;99.90;;;;;;4945838;28;94180;-34
2023/06/26 06:12:45;;;;;;;12.77;9.55;;;22.20;99.90;;;;;;4941730;28;95332;-45
2023/06/26 06:15:11;;;;;;;10.05;8.45;;;22.10;99.90;;;;;;4947968;28;94408;-39
2023/06/26 06:17:36;;;;;;;8.45;7.32;;;22.10;99.90;;;;;;4940981;28;93587;-43
2023/06/26 06:20:03;;;;;;;11.43;8.05;;;22.00;99.90;;;;;;4957022;28;95108;-33
2023/06/26 06:22:29;;;;;;;10.90;8.45;;;22.00;99.90;;;;;;4956708;28;94559;-33
2023/06/26 06:24:54;;;;;;;11.32;7.97;;;22.00;99.90;;;;;;4957569;28;95133;-46
2023/06/26 06:27:20;;;;;;;8.73;7.85;;;22.20;99.90;;;;;;4941092;28;93663;-36
2023/06/26 06:29:46;;;;;;;12.77;8.82;;;22.50;99.90;;;;;;4937454;28;95143;-43
2023/06/26 06:32:11;;;;;;;11.25;8.70;;;22.60;99.90;;;;;;4954168;28;94946;-34
2023/06/26 06:34:37;;;;;;;11.18;7.43;;;22.50;99.90;;;;;;4944517;28;94395;-34
2023/06/26 06:37:03;;;;;;;12.05;6.57;;;22.40;99.90;;;;;;4926156;28;94098;-43
2023/06/26 06:39:29;;;;;;;9.43;7.00;;;22.30;99.90;;;;;;4937634;28;94801;-36
2023/06/26 06:41:54;;;;;;;12.70;6.13;;;22.40;99.90;;;;;;4937689;28;93058;-42
2023/06/26 06:44:20;;;;;;;7.55;6.25;;;22.50;99.90;;;;;;4925684;28;92632;-34
2023/06/26 06:46:46;;;;;;;10.02;6.35;;;22.60;99.90;;;;;;4937669;28;92205;-35
2023/06/26 06:49:11;;;;;;;8.20;5.95;;;22.60;99.90;;;;;;4925752;28;94987;-36
2023/06/26 06:51:37;;;;;;;7.72;5.50;;;22.70;99.90;;;;;;4938144;28;92948;-36
2023/06/26 06:54:02;;;;;;;9.88;5.45;;;22.70;99.90;;;;;;4920444;28;93435;-41
2023/06/26 06:56:28;;;;;;;6.07;5.10;;;22.80;99.90;;;;;;4937580;28;94755;-33
2023/06/26 06:58:54;;;;;;;9.10;4.00;;;22.80;99.90;;;;;;4937231;28;95160;-34
2023/06/26 07:01:19;;;;;;;6.93;4.32;;;23.00;99.90;;;;;;4937476;28;95446;-32
2023/06/26 07:03:45;;;;;;;12.02;3.60;;;23.20;99.90;;;;;;4938092;28;93400;-33
2023/06/26 07:06:10;;;;;;;4.68;2.97;;;23.10;99.90;;;;;;4937145;28;93938;-36
2023/06/26 07:08:36;;;;;;;4.25;3.60;;;23.40;99.90;;;;;;4937924;28;95036;-35
2023/06/26 07:11:02;;;;;;;6.50;3.33;;;23.40;99.90;;;;;;4937725;28;94966;-34
2023/06/26 07:13:28;;;;;;;4.03;3.05;;;23.50;99.90;;;;;;4938239;28;93431;-36
2023/06/26 07:15:54;;;;;;;4.65;3.00;;;23.80;99.90;;;;;;4937775;28;91438;-35
2023/06/26 07:18:19;;;;;;;4.97;3.70;;;23.90;99.90;;;;;;4937572;28;94540;-43
2023/06/26 07:20:45;;;;;;;6.55;3.50;;;24.00;99.90;;;;;;4936432;28;94799;-42
2023/06/26 07:23:10;;;;;;;3.25;2.95;;;24.30;99.90;;;;;;4937397;28;94740;-38
2023/06/26 07:25:37;;;;;;;6.60;2.92;;;24.40;99.90;;;;;;4937695;28;92351;-40
2023/06/26 07:28:02;;;;;;;5.47;2.63;;;24.60;99.90;;;;;;4935846;28;93960;-44
2023/06/26 07:30:28;;;;;;;4.72;2.75;;;24.80;99.90;;;;;;4934330;28;93949;-32
2023/06/26 07:32:54;;;;;;;4.88;2.72;;;24.50;99.90;;;;;;4934677;28;94379;-34
2023/06/26 07:35:19;;;;;;;3.38;2.17;;;24.70;99.90;;;;;;4938019;28;94697;-38
2023/06/26 07:37:45;;;;;;;4.28;2.50;;;24.60;99.90;;;;;;4954004;28;93621;-40
2023/06/26 07:40:11;;;;;;;2.67;1.88;;;24.40;99.90;;;;;;4957223;28;94091;-39
2023/06/26 07:42:37;;;;;;;7.10;3.03;;;24.20;99.90;;;;;;4960956;28;92897;-33
2023/06/26 07:45:09;;;;;;;5.05;2.70;;;24.40;99.90;;;;;;4960144;28;92998;-37
2023/06/26 07:47:36;;;;;;;5.20;2.58;;;24.50;99.90;;;;;;4953868;28;95887;-35
2023/06/26 07:50:02;;;;;;;1.98;1.77;;;24.60;99.90;;;;;;4958534;28;95864;-36
2023/06/26 07:52:30;;;;;;;3.28;1.90;;;24.50;99.90;;;;;;4958821;28;94398;-44
2023/06/26 07:54:56;;;;;;;4.30;2.13;;;24.90;99.90;;;;;;4955789;28;93505;-35
2023/06/26 07:57:21;;;;;;;4.55;2.38;;;25.10;99.90;;;;;;4954013;28;94975;-36
2023/06/26 07:59:47;;;;;;;4.55;3.25;;;25.00;99.90;;;;;;4956522;28;94812;-36
2023/06/26 08:02:12;;;;;;;3.30;2.45;;;25.40;99.90;;;;;;4973442;28;92376;-41
2023/06/26 08:04:38;;;;;;;5.82;1.95;;;25.80;99.90;;;;;;4969551;28;93551;-39
2023/06/26 08:07:04;;;;;;;4.43;2.38;;;25.70;99.90;;;;;;4954691;28;94936;-34
2023/06/26 08:09:31;;;;;;;7.70;3.03;;;25.80;97.70;;;;;;4953398;28;94625;-49
2023/06/26 08:11:57;;;;;;;4.07;2.70;;;26.20;98.80;;;;;;4954277;28;94337;-35
2023/06/26 08:14:23;;;;;;;6.63;2.30;;;26.20;99.60;;;;;;4968206;28;95090;-35
2023/06/26 08:16:49;;;;;;;5.95;2.55;;;26.10;98.40;;;;;;4973272;28;95563;-37
2023/06/26 08:19:16;;;;;;;5.53;3.30;;;26.20;97.50;;;;;;4963087;28;94133;-35
2023/06/26 08:21:43;;;;;;;2.47;2.03;;;26.50;99.60;;;;;;4962544;28;92933;-35
2023/06/26 08:24:09;;;;;;;6.80;2.80;;;26.40;99.30;;;;;;4967155;28;93304;-33
2023/06/26 08:26:35;;;;;;;3.42;2.25;;;26.20;98.90;;;;;;4969784;28;95134;-37
2023/06/26 08:29:07;;;;;;;4.90;2.88;;;26.80;94.00;;;;;;4970673;28;94222;-35
2023/06/26 08:31:37;;;;;;;8.35;2.72;;;26.20;98.80;;;;;;4974908;28;93152;-36
2023/06/26 08:34:03;;;;;;;3.90;3.17;;;25.90;97.10;;;;;;4976531;28;93363;-33
2023/06/26 08:36:29;;;;;;;7.78;2.70;;;25.90;97.20;;;;;;4988205;28;96345;-34
2023/06/26 08:38:55;;;;;;;7.35;2.78;;;25.60;97.70;;;;;;4995174;28;94996;-40
2023/06/26 08:41:20;;;;;;;3.55;1.98;;;25.50;94.10;;;;;;4995754;28;93555;-40
2023/06/26 08:43:46;;;;;;;3.63;2.13;;;25.10;97.30;;;;;;4994527;28;93779;-40
2023/06/26 08:46:12;;;;;;;4.05;1.75;;;25.20;96.20;;;;;;4989017;28;96452;-34
2023/06/26 08:48:38;;;;;;;9.55;2.25;;;25.10;98.70;;;;;;4994492;28;95136;-37
2023/06/26 08:51:09;;;;;;;8.55;2.08;;;25.30;99.90;;;;;;4996873;28;93019;-34
2023/06/26 08:53:51;;;;;;;7.53;2.35;;;25.60;99.10;;;;;;4989546;28;92389;-35
2023/06/26 08:56:21;;;;;;;7.85;2.53;;;25.60;97.80;;;;;;4976842;28;94759;-35
2023/06/26 08:58:48;;;;;;;9.82;2.17;;;25.20;99.90;;;;;;4996769;28;94080;-33
2023/06/26 09:01:13;;;;;;;15.25;2.20;;;25.20;99.90;;;;;;4995155;28;94655;-34
2023/06/26 09:03:41;;;;;;;47.95;6.85;;;24.80;99.20;;;;;;4996279;28;93016;-34
2023/06/26 09:06:07;;;;;;;2.97;1.95;;;24.80;99.90;;;;;;4994162;28;94772;-36
2023/06/26 09:08:33;;;;;;;1.73;1.30;;;25.60;99.90;;;;;;4995830;28;94473;-37
2023/06/26 09:10:58;;;;;;;2.28;1.98;;;25.50;97.60;;;;;;4995274;28;93732;-38
2023/06/26 09:13:24;;;;;;;2.92;2.00;;;25.30;94.70;;;;;;4995403;28;93564;-34
2023/06/26 09:15:54;;;;;;;5.78;2.65;;;24.90;99.90;;;;;;4993565;28;95165;-41
2023/06/26 09:18:21;;;;;;;5.60;2.55;;;25.00;97.20;;;;;;4995408;28;94471;-39
2023/06/26 09:20:47;;;;;;;6.43;2.85;;;25.50;98.20;;;;;;4994546;28;92186;-36
2023/06/26 09:23:13;;;;;;;3.42;2.55;;;25.60;95.20;;;;;;4995480;28;93421;-38
2023/06/26 09:25:40;;;;;;;4.03;2.17;;;25.40;96.70;;;;;;4993952;28;95395;-39
2023/06/26 09:28:06;;;;;;;3.63;2.23;;;25.60;96.90;;;;;;4995704;28;95873;-39
2023/06/26 09:30:32;;;;;;;4.72;2.30;;;25.40;96.10;;;;;;4994570;28;94287;-42
2023/06/26 09:33:16;;;;;;;3.10;2.75;;;25.10;97.00;;;;;;4995541;28;93572;-39
2023/06/26 09:35:44;;;;;;;5.45;2.83;;;25.10;95.70;;;;;;4994058;28;95139;-33
2023/06/26 09:38:09;;;;;;;6.07;2.70;;;25.30;98.10;;;;;;4983118;28;94175;-36
2023/06/26 09:40:37;;;;;;;15.60;2.90;;;25.20;99.70;;;;;;4994698;28;93421;-36
2023/06/26 09:43:05;;;;;;;13.07;3.08;;;25.20;99.40;;;;;;4995883;28;92601;-39
2023/06/26 09:45:32;;;;;;;4.88;2.85;;;24.90;99.40;;;;;;4988244;28;94892;-34
2023/06/26 09:48:03;;;;;;;5.72;2.40;;;24.70;97.70;;;;;;4989078;28;95282;-39
2023/06/26 09:50:31;;;;;;;4.63;2.70;;;24.80;99.90;;;;;;4970003;28;93977;-36
2023/06/26 09:52:57;;;;;;;4.50;2.47;;;24.60;99.90;;;;;;4993640;28;94068;-45
2023/06/26 09:55:24;;;;;;;5.15;3.53;;;24.50;99.90;;;;;;4975456;28;95350;-38
2023/06/26 09:57:51;;;;;;;3.63;2.97;;;24.80;99.90;;;;;;4988998;28;94542;-40
2023/06/26 10:00:17;;;;;;;11.48;2.92;;;24.70;99.90;;;;;;4995987;28;94705;-40
2023/06/26 10:02:44;;;;;;;3.53;2.70;;;24.50;99.90;;;;;;4995184;28;93722;-35
2023/06/26 10:05:09;;;;;;;3.72;2.75;;;24.40;99.90;;;;;;4987098;28;94652;-35
2023/06/26 10:07:37;;;;;;;2.70;2.50;;;24.30;99.90;;;;;;4989882;28;93556;-38
2023/06/26 10:10:04;;;;;;;3.43;3.13;;;23.80;99.90;;;;;;4988359;28;93693;-33
2023/06/26 10:12:31;;;;;;;3.23;2.90;;;23.80;99.90;;;;;;4988543;28;92550;-37
2023/06/26 10:14:57;;;;;;;2.95;2.70;;;23.80;99.90;;;;;;4983385;28;95913;-37
2023/06/26 10:17:28;;;;;;;2.85;2.55;;;24.10;99.90;;;;;;4994678;28;95943;-40
2023/06/26 10:19:56;;;;;;;3.28;2.85;;;24.20;99.90;;;;;;4981424;28;93063;-35
2023/06/26 10:22:24;;;;;;;;;;;24.60;99.90;;;;;;4984250;28;93786;-33
2023/06/26 10:24:52;;;;;;;4.40;2.40;;;24.70;99.90;;;;;;4995222;28;95745;-38
2023/06/26 10:27:22;;;;;;;8.15;2.35;;;24.80;99.90;;;;;;4994607;28;94895;-37
2023/06/26 10:30:03;;;;;;;3.67;2.08;;;24.70;84.50;;;;;;4994268;28;93523;-34
2023/06/26 10:32:29;;;;;;;4.32;1.98;;;25.10;78.00;;;;;;4994879;28;93890;-35
2023/06/26 10:34:56;;;;;;;11.55;2.70;;;25.10;79.50;;;;;;4972308;28;95002;-38
2023/06/26 10:37:41;;;;;;;4.70;2.80;;;24.90;79.60;;;;;;4994750;28;94503;-35
2023/06/26 10:40:07;;;;;;;2.53;2.33;;;24.70;80.60;;;;;;4994003;28;93727;-36
2023/06/26 10:42:38;;;;;;;6.03;2.63;;;24.80;77.30;;;;;;4981509;28;94350;-34
2023/06/26 10:45:17;;;;;;;4.85;2.10;;;24.70;72.80;;;;;;4959295;28;95833;-40
2023/06/26 10:47:47;;;;;;;3.10;2.33;;;24.70;69.30;;;;;;4974453;28;94088;-36
2023/06/26 10:50:30;;;;;;;1.98;1.73;;;24.90;70.10;;;;;;4974752;28;92462;-34
2023/06/26 10:53:14;;;;;;;2.60;2.38;;;25.00;69.10;;;;;;4975693;28;93107;-35
2023/06/26 10:56:00;;;;;;;3.92;2.53;;;25.10;68.20;;;;;;4973498;28;94773;-38
2023/06/26 10:58:41;;;;;;;7.10;2.77;;;25.30;67.60;;;;;;4975024;28;95146;-34
2023/06/26 11:01:11;;;;;;;6.10;2.78;;;25.10;68.40;;;;;;4974726;28;92575;-34
2023/06/26 11:03:38;;;;;;;7.10;2.92;;;24.80;71.60;;;;;;4973945;28;93151;-35
2023/06/26 11:06:11;;;;;;;3.92;2.70;;;24.50;74.30;;;;;;4974024;28;95636;-40
2023/06/26 11:08:50;;;;;;;3.60;2.50;;;24.30;74.30;;;;;;4974179;28;95135;-40
2023/06/26 11:11:17;;;;;;;3.38;2.70;;;24.10;70.60;;;;;;4974598;28;94391;-36
2023/06/26 11:13:45;;;;;;;5.30;2.97;;;24.20;72.90;;;;;;4973598;28;93362;-39
2023/06/26 11:16:12;;;;;;;3.63;2.33;;;23.90;72.90;;;;;;4973781;28;94505;-40
2023/06/26 11:18:38;;;;;;;5.30;2.53;;;24.00;75.00;;;;;;4974596;28;93207;-39
2023/06/26 11:21:14;;;;;;;6.72;3.30;;;24.20;85.70;;;;;;4987770;28;92181;-35
2023/06/26 11:23:40;;;;;;;2.80;2.38;;;24.20;85.30;;;;;;4974417;28;92439;-38
2023/06/26 11:26:37;;;;;;;3.60;2.25;;;24.00;75.00;;;;;;4976870;28;94695;-38
2023/06/26 11:29:03;;;;;;;2.03;1.75;;;23.80;72.90;;;;;;4992768;28;94205;-37
2023/06/26 11:31:31;;;;;;;10.10;3.47;;;24.10;76.90;;;;;;4993170;28;93758;-34
2023/06/26 11:33:58;;;;;;;;;;;24.10;79.10;;;;;;4979809;28;93391;-41
2023/06/26 11:36:25;;;;;;;3.53;2.13;;;24.20;74.40;;;;;;4974938;28;93565;-40
2023/06/26 11:38:54;;;;;;;3.23;2.17;;;24.20;68.60;;;;;;4973409;28;96263;-38
2023/06/26 11:41:21;;;;;;;4.63;1.90;;;24.30;67.30;;;;;;4973961;28;92942;-39
2023/06/26 11:43:47;;;;;;;3.33;1.77;;;24.30;67.70;;;;;;4973892;28;94318;-41
2023/06/26 11:46:12;;;;;;;2.05;1.77;;;24.50;67.30;;;;;;4973902;28;95468;-34
2023/06/26 11:48:39;;;;;;;8.63;2.33;;;24.60;66.50;;;;;;4973641;28;94390;-35
2023/06/26 11:51:05;;;;;;;8.13;2.65;;;24.50;66.90;;;;;;4974377;28;92656;-38
2023/06/26 11:53:31;;;;;;;3.38;1.95;;;24.60;68.10;;;;;;4973542;28;93410;-38
2023/06/26 11:55:56;;;;;;;3.03;2.50;;;24.70;67.80;;;;;;4954821;28;94626;-38
2023/06/26 11:58:22;;;;;;;3.35;2.83;;;24.30;66.70;;;;;;4973135;28;94442;-38
2023/06/26 12:00:48;;;;;;;3.25;2.80;;;24.30;68.30;;;;;;4972070;28;95487;-35
2023/06/26 12:03:15;;;;;;;6.90;2.60;;;24.40;68.20;;;;;;4973453;28;94729;-43
2023/06/26 12:05:44;;;;;;;3.70;1.75;;;24.40;67.90;;;;;;4973386;28;94400;-34
2023/06/26 12:08:11;;;;;;;4.32;2.47;;;24.40;68.10;;;;;;4977089;28;94448;-34
2023/06/26 12:10:36;;;;;;;4.75;2.53;;;24.20;70.50;;;;;;4977088;28;94324;-39
2023/06/26 12:13:02;;;;;;;4.85;2.65;;;24.10;68.60;;;;;;4977422;28;92796;-39
2023/06/26 12:15:28;;;;;;;3.60;1.90;;;23.90;69.80;;;;;;4975888;28;96841;-37
2023/06/26 12:17:54;;;;;;;6.68;2.47;;;23.90;73.40;;;;;;4976858;28;94404;-34
2023/06/26 12:20:21;;;;;;;4.72;2.35;;;23.90;72.20;;;;;;4976208;28;94888;-34
2023/06/26 12:22:50;;;;;;;6.15;2.15;;;23.80;70.90;;;;;;4976462;28;94851;-38
2023/06/26 12:25:22;;;;;;;1.50;1.40;;;23.90;70.40;;;;;;4975580;28;95508;-36
2023/06/26 12:27:48;;;;;;;2.92;2.05;;;23.60;70.80;;;;;;4976641;28;96486;-35
2023/06/26 12:30:14;;;;;;;3.17;2.13;;;23.60;73.40;;;;;;4976551;28;94263;-36
2023/06/26 12:32:39;;;;;;;2.97;1.58;;;23.50;72.10;;;;;;4977080;28;92180;-39
2023/06/26 12:35:05;;;;;;;3.00;1.52;;;23.60;70.50;;;;;;4975886;28;94723;-36
2023/06/26 12:37:40;;;;;;;1.95;1.50;;;23.70;70.60;;;;;;4977444;28;94347;-42
2023/06/26 12:40:17;;;;;;;2.97;1.73;;;23.50;71.80;;;;;;4977108;28;92971;-36